Thunder radar more information blitzortung!


Löydät sääaseman tiedot myös:

European Weather Network

Finland Weather Exchange

Weather Underground

AWEKAS



Weather Underground säähistoriasivu

Päivittäin yhteenveto Maaliskuu 29, 2017 Yksiköt:  Englantilaiset    Metriset   Molemmat
« Edellinen Päivä
Seuraava Päivä »
Päivittäin Viikoittain Kuukausittain Vuosittain Mukautettu
  Korkea: Matala: Keskiarvo:
Lämpötila: TemperatureC °F -4.7 °F -1.7 °F
Kastepiste: DewpointC °F -10.6 °F -8 °F
Kosteus: Humidity % 39 % 63 %
Tuulen nopeus: WindSpeedKMH mph 0.0 mph 2.9 mph
Tuulenpuuska: WindSpeedGustKMH mph - -
Tuuli:- - NW
Ilmanpaine: PressurehPa in 1012.8 in -
Sade: 0.0 in    
Historical Graphs
 
 
Taulukkotiedot Maaliskuu 29, 2017
Aika Lämpötila Kastepiste Ilmanpaine Tuuli Tuulen nopeus Tuulenpuuska Kosteus Sademäärä (tunneittain)
TemperatureC °F DewpointC °F PressurehPa in Calm     Humidity % HourlyPrecipMM in
00:00 -2.7 °F -7.3 °F 1013.1 in Calm   6.4 mph 71 % 0.0 in
00:15 -2.8 °F -7.2 °F 1013.1 in Calm   4.8 mph 72 % 0.0 in
00:30 -2.8 °F -7.2 °F 1013.1 in Calm   4.8 mph 72 % 0.0 in
00:45 -2.7 °F -7.0 °F 1013.1 in WNW 1.6 mph 4.8 mph 72 % 0.0 in
01:00 -2.8 °F -7.3 °F 1013.1 in Calm   9.7 mph 71 % 0.0 in
01:15 -2.7 °F -7.4 °F 1013.1 in NW 1.6 mph 4.8 mph 70 % 0.0 in
01:30 -2.7 °F -7.8 °F 1013.1 in NW 3.2 mph 8.0 mph 68 % 0.0 in
01:45 -3.0 °F -7.5 °F 1013.1 in Calm     71 % 0.0 in
02:00 -3.4 °F -7.5 °F 1013.1 in Calm   8.0 mph 73 % 0.0 in
02:15 -3.4 °F -7.4 °F 1013.1 in Calm   1.6 mph 74 % 0.0 in
02:30 -3.3 °F -7.3 °F 1013.1 in WNW 1.6 mph 9.7 mph 74 % 0.0 in
02:45 -3.3 °F -7.4 °F 1013.1 in Calm   3.2 mph 73 % 0.0 in
03:00 -3.3 °F -7.4 °F 1013.1 in WNW 1.6 mph 8.0 mph 73 % 0.0 in
03:15 -3.4 °F -7.4 °F 1013.1 in Calm   6.4 mph 74 % 0.0 in
03:30 -3.5 °F -7.5 °F 1013.1 in Calm   4.8 mph 74 % 0.0 in
03:45 -3.8 °F -7.7 °F 1013.1 in Calm   3.2 mph 74 % 0.0 in
04:00 -3.9 °F -7.6 °F 1013.1 in Calm   4.8 mph 76 % 0.0 in
04:15 -3.9 °F -7.6 °F 1012.8 in Calm   4.8 mph 76 % 0.0 in
04:30 -4.1 °F -7.7 °F 1012.8 in Calm   4.8 mph 76 % 0.0 in
04:45 -4.3 °F -7.9 °F 1012.8 in Calm   6.4 mph 76 % 0.0 in
05:00 -4.5 °F -7.9 °F 1012.8 in Calm   9.7 mph 77 % 0.0 in
05:15 -4.5 °F -7.8 °F 1012.8 in Calm   4.8 mph 78 % 0.0 in
05:30 -4.4 °F -7.9 °F 1012.8 in WNW 1.6 mph 4.8 mph 77 % 0.0 in
05:45 -4.5 °F -7.9 °F 1012.8 in Calm   3.2 mph 77 % 0.0 in
06:00 -4.6 °F -7.8 °F 1012.8 in Calm   4.8 mph 78 % 0.0 in
06:15 -4.6 °F -7.6 °F 1012.8 in Calm   6.4 mph 79 % 0.0 in
06:30 -4.4 °F -7.6 °F 1012.8 in WNW 1.6 mph 9.7 mph 78 % 0.0 in
06:45 -4.1 °F -7.5 °F 1012.8 in NW 1.6 mph 8.0 mph 77 % 0.0 in
07:00 -4.1 °F -7.5 °F 1012.8 in NW 1.6 mph 9.7 mph 77 % 0.0 in
07:15 -4.3 °F -7.7 °F 1012.8 in Calm   6.4 mph 77 % 0.0 in
07:30 -4.5 °F -7.8 °F 1012.8 in Calm   3.2 mph 78 % 0.0 in
07:45 -4.7 °F -7.8 °F 1012.8 in Calm   4.8 mph 79 % 0.0 in
08:00 -4.3 °F -7.6 °F 1012.8 in NW 1.6 mph 11.3 mph 78 % 0.0 in
08:15 -3.9 °F -7.5 °F 1012.8 in NW 3.2 mph 9.7 mph 76 % 0.0 in
08:30 -3.6 °F -7.3 °F 1012.8 in NW 3.2 mph 11.3 mph 75 % 0.0 in
08:45 -3.2 °F -7.4 °F 1012.8 in NW 4.8 mph 11.3 mph 73 % 0.0 in
09:00 -3.0 °F -7.3 °F 1013.1 in NW 6.4 mph 12.9 mph 72 % 0.0 in
09:15 -2.8 °F -7.2 °F 1013.1 in NW 6.4 mph 12.9 mph 72 % 0.0 in
09:30 -2.6 °F -7.3 °F 1013.1 in NW 8.0 mph 16.1 mph 70 % 0.0 in
09:45 -2.3 °F -7.6 °F 1013.1 in NW 4.8 mph 14.5 mph 67 % 0.0 in
10:00 -1.9 °F -7.3 °F 1013.1 in NW 3.2 mph 8.0 mph 67 % 0.0 in
10:15 -1.7 °F -7.2 °F 1013.1 in NW 3.2 mph 11.3 mph 66 % 0.0 in
10:30 -1.3 °F -7.5 °F 1013.1 in NW 3.2 mph 9.7 mph 63 % 0.0 in
10:45 -0.8 °F -8.1 °F 1013.1 in WNW 3.2 mph 11.3 mph 58 % 0.0 in
11:00 -0.6 °F -7.8 °F 1013.1 in NNW 4.8 mph 11.3 mph 58 % 0.0 in
11:15 -0.2 °F -8.6 °F 1013.1 in WNW 4.8 mph 12.9 mph 53 % 0.0 in
11:30 0.0 °F -8.7 °F 1013.1 in NW 6.4 mph 12.9 mph 52 % 0.0 in
11:45 0.4 °F -8.8 °F 1013.1 in NW 3.2 mph 11.3 mph 50 % 0.0 in
12:00 0.7 °F -8.8 °F 1013.1 in WNW 4.8 mph 16.1 mph 49 % 0.0 in
12:15 0.6 °F -8.9 °F 1013.4 in NW 6.4 mph 14.5 mph 49 % 0.0 in
12:30 1.1 °F -9.0 °F 1013.4 in NW 3.2 mph 11.3 mph 47 % 0.0 in
12:45 1.3 °F -9.0 °F 1013.4 in NNW 3.2 mph 16.1 mph 46 % 0.0 in
13:00 1.3 °F -9.1 °F 1013.4 in NW 4.8 mph 14.5 mph 46 % 0.0 in
13:15 1.4 °F -9.5 °F 1013.1 in NW 8.0 mph 17.7 mph 44 % 0.0 in
13:30 1.3 °F -10.6 °F 1013.1 in NW 8.0 mph 19.3 mph 41 % 0.0 in
13:45 1.4 °F -10.4 °F 1013.1 in NW 6.4 mph 17.7 mph 41 % 0.0 in
14:00 1.6 °F -10.3 °F 1013.1 in NW 6.4 mph 16.1 mph 41 % 0.0 in
14:15 1.6 °F -9.9 °F 1013.1 in NNW 4.8 mph 14.5 mph 42 % 0.0 in
14:30 1.7 °F -9.8 °F 1013.1 in WNW 4.8 mph 20.9 mph 42 % 0.0 in
14:45 2.2 °F -10.4 °F 1013.1 in WNW 6.4 mph 14.5 mph 39 % 0.0 in
15:00 2.2 °F -9.4 °F 1013.1 in NW 4.8 mph 14.5 mph 42 % 0.0 in
15:15 1.9 °F -9.6 °F 1013.1 in WNW 6.4 mph 17.7 mph 42 % 0.0 in
15:30 1.6 °F -9.7 °F 1013.1 in WNW 6.4 mph 19.3 mph 43 % 0.0 in
15:45 1.4 °F -9.2 °F 1012.8 in West 6.4 mph 16.1 mph 45 % 0.0 in
16:00 1.3 °F -8.5 °F 1013.1 in WNW 6.4 mph 16.1 mph 48 % 0.0 in
16:15 1.3 °F -8.8 °F 1013.1 in NW 4.8 mph 25.7 mph 47 % 0.0 in
16:30 0.9 °F -8.6 °F 1013.1 in NW 8.0 mph 19.3 mph 49 % 0.0 in
16:45 0.6 °F -8.9 °F 1013.1 in NW 6.4 mph 16.1 mph 49 % 0.0 in
17:00 0.8 °F -8.4 °F 1013.1 in NW 6.4 mph 16.1 mph 50 % 0.0 in
17:15 0.6 °F -8.9 °F 1013.1 in NW 8.0 mph 17.7 mph 49 % 0.0 in
17:30 0.6 °F -8.4 °F 1013.1 in NW 8.0 mph 17.7 mph 51 % 0.0 in
17:45 0.5 °F -8.0 °F 1013.1 in NW 8.0 mph 14.5 mph 53 % 0.0 in
18:00 0.4 °F -9.6 °F 1013.4 in NW 6.4 mph 16.1 mph 47 % 0.0 in
18:15 0.2 °F -9.0 °F 1013.4 in NW 8.0 mph 17.7 mph 50 % 0.0 in
18:30 0.1 °F -8.6 °F 1013.4 in NW 3.2 mph 14.5 mph 52 % 0.0 in
18:45 -0.2 °F -8.9 °F 1013.4 in NW 6.4 mph 12.9 mph 52 % 0.0 in
19:00 -0.3 °F -8.7 °F 1013.8 in NW 6.4 mph 12.9 mph 53 % 0.0 in
19:15 -0.3 °F -8.7 °F 1013.8 in NW 4.8 mph 16.1 mph 53 % 0.0 in
19:30 -0.4 °F -8.6 °F 1013.8 in NW 4.8 mph 11.3 mph 54 % 0.0 in
19:45 -0.7 °F -8.6 °F 1014.1 in NW 3.2 mph 9.7 mph 55 % 0.0 in
20:00 -0.9 °F -8.6 °F 1014.1 in NW 1.6 mph 6.4 mph 56 % 0.0 in
20:15 -1.3 °F -8.5 °F 1014.4 in Calm   4.8 mph 58 % 0.0 in
20:30 -1.5 °F -8.3 °F 1014.4 in Calm   3.2 mph 60 % 0.0 in
20:45 -1.8 °F -8.1 °F 1014.8 in Calm   4.8 mph 62 % 0.0 in
21:00 -1.9 °F -8.1 °F 1015.1 in WNW 1.6 mph 4.8 mph 63 % 0.0 in
21:15 -2.2 °F -7.7 °F 1015.5 in Calm   3.2 mph 66 % 0.0 in
21:30 -2.3 °F -7.6 °F 1015.5 in WNW 1.6 mph 6.4 mph 67 % 0.0 in
21:45 -2.4 °F -6.9 °F 1015.5 in WNW 1.6 mph 8.0 mph 71 % 0.0 in
22:00 -2.6 °F -6.7 °F 1015.8 in Calm   4.8 mph 73 % 0.0 in
22:15 -2.8 °F -6.8 °F 1015.8 in Calm   6.4 mph 74 % 0.0 in
22:30 -3.1 °F -6.5 °F 1016.1 in Calm   4.8 mph 77 % 0.0 in
22:45 -3.2 °F -6.3 °F 1016.1 in Calm   4.8 mph 79 % 0.0 in
23:00 -3.3 °F -6.1 °F 1016.1 in Calm   3.2 mph 81 % 0.0 in
23:15 -3.4 °F -6.1 °F 1016.1 in Calm   4.8 mph 82 % 0.0 in
23:30 -3.5 °F -5.8 °F 1016.1 in Calm   3.2 mph 84 % 0.0 in
23:45 -3.7 °F -5.9 °F 1016.5 in Calm   3.2 mph 85 % 0.0 in
Esan sääasema
Terveisin Weather Underground - 2.75 mb

Alkuperäinen skripti  Jim McMurry - jmcmurry@mwt.net Sovitettu myös templatelle  Wim van der Kuil - Leuven-Template.eu

Laitteet joita käytämme:

Sääasema
Davis VP2

Sääasemaohjelma
Cumulus

Sääaseman tietokone
Asus EeePC

Palveluntarjoaja
Suncomet

Davis VP2

Cumulus

Asus EeePC

Suncomet